Time;durP1;ratioP1;P1;durP2;ratioP2;P2;SDS_P1;SDS_P2;PMS_P1;PMS_P2;Temp;Humidity;BMP_temperature;BMP_pressure;BME280_temperature;BME280_humidity;BME280_pressure;Samples;Min_cycle;Max_cycle;Signal;HPM_P1;HPM_P2
2023/06/27 00:00:09;;;;;;;86.20;2.03;;;24.10;21.80;;;;;;4995365;28;20846;-72
2023/06/27 00:02:34;;;;;;;86.27;2.30;;;24.10;22.10;;;;;;4995261;28;20929;-72
2023/06/27 00:05:00;;;;;;;86.17;2.23;;;23.90;22.00;;;;;;4994642;28;20456;-72
2023/06/27 00:07:28;;;;;;;86.40;2.20;;;23.80;21.90;;;;;;4994876;28;20252;-72
2023/06/27 00:09:55;;;;;;;86.67;2.33;;;23.90;22.00;;;;;;4995150;28;20975;-72
2023/06/27 00:12:20;;;;;;;86.27;2.20;;;23.50;21.70;;;;;;4995070;28;20398;-72
2023/06/27 00:14:47;;;;;;;87.17;2.60;;;23.20;23.00;;;;;;4994745;28;20427;-72
2023/06/27 00:17:14;;;;;;;86.67;2.43;;;23.40;23.20;;;;;;4994919;28;20165;-73
2023/06/27 00:19:40;;;;;;;86.60;2.30;;;23.60;22.90;;;;;;4994830;28;20861;-72
2023/06/27 00:22:09;;;;;;;87.07;2.50;;;23.60;23.60;;;;;;4994907;28;20492;-72
2023/06/27 00:24:39;;;;;;;86.80;2.40;;;23.60;23.30;;;;;;4994618;28;20166;-72
2023/06/27 00:27:05;;;;;;;88.23;2.60;;;23.50;23.10;;;;;;4994766;28;20457;-72
2023/06/27 00:29:33;;;;;;;86.57;2.10;;;23.50;23.70;;;;;;4994549;28;20468;-72
2023/06/27 00:31:58;;;;;;;87.10;2.33;;;23.40;24.80;;;;;;4994759;28;20492;-72
2023/06/27 00:34:24;;;;;;;87.53;2.30;;;23.20;23.90;;;;;;4994444;28;20500;-73
2023/06/27 00:36:49;;;;;;;86.80;2.20;;;23.20;24.20;;;;;;4994438;28;20205;-72
2023/06/27 00:39:15;;;;;;;87.00;2.13;;;23.30;24.50;;;;;;4994387;28;20170;-72
2023/06/27 00:41:41;;;;;;;87.40;2.50;;;23.10;24.20;;;;;;4994600;28;20173;-72
2023/06/27 00:44:08;;;;;;;89.67;2.87;;;23.10;24.50;;;;;;4994438;28;20172;-72
2023/06/27 00:46:40;;;;;;;87.50;2.37;;;23.00;24.20;;;;;;4994136;28;20441;-72
2023/06/27 00:49:10;;;;;;;87.50;2.40;;;23.00;25.10;;;;;;4994062;28;20462;-73
2023/06/27 00:51:39;;;;;;;87.40;2.23;;;23.20;24.70;;;;;;4994379;28;20412;-72
2023/06/27 00:54:05;;;;;;;87.60;2.43;;;23.00;24.60;;;;;;4993614;28;20555;-72
2023/06/27 00:56:31;;;;;;;88.77;2.40;;;23.00;24.90;;;;;;4993987;28;20531;-72
2023/06/27 00:58:59;;;;;;;87.43;2.30;;;23.30;23.70;;;;;;4994144;28;20175;-72
2023/06/27 01:01:25;;;;;;;87.47;2.13;;;23.30;24.40;;;;;;4994067;28;20184;-72
2023/06/27 01:03:51;;;;;;;87.93;2.37;;;23.10;24.80;;;;;;4994213;28;20416;-72
2023/06/27 01:06:38;;;;;;;87.60;2.30;;;23.00;24.20;;;;;;4993762;28;20292;-73
2023/06/27 01:09:10;;;;;;;88.17;2.13;;;22.90;24.70;;;;;;4993967;28;20473;-72
2023/06/27 01:11:45;;;;;;;87.57;2.20;;;22.90;24.40;;;;;;4994144;28;20503;-72
2023/06/27 01:14:16;;;;;;;87.77;2.30;;;23.00;24.80;;;;;;4993751;28;20419;-72
2023/06/27 01:16:43;;;;;;;87.30;1.77;;;22.90;24.80;;;;;;4993640;28;20466;-72
2023/06/27 01:19:09;;;;;;;87.70;2.10;;;23.00;24.50;;;;;;4993816;28;20631;-73
2023/06/27 01:21:39;;;;;;;88.33;2.40;;;22.80;25.60;;;;;;4993567;28;20417;-71
2023/06/27 01:24:06;;;;;;;87.77;2.10;;;22.70;24.80;;;;;;4993547;28;20460;-72
2023/06/27 01:26:32;;;;;;;94.33;3.90;;;22.60;25.20;;;;;;4993480;28;20432;-72
2023/06/27 01:28:58;;;;;;;88.57;2.60;;;22.60;25.50;;;;;;4993760;28;20468;-72
2023/06/27 01:31:35;;;;;;;88.30;2.40;;;22.60;25.40;;;;;;4993781;28;20177;-71
2023/06/27 01:34:21;;;;;;;88.20;2.33;;;22.40;25.10;;;;;;4993335;28;20259;-72
2023/06/27 01:36:51;;;;;;;88.27;2.27;;;22.60;25.40;;;;;;4993286;28;20986;-73
2023/06/27 01:39:35;;;;;;;88.47;2.43;;;22.60;25.20;;;;;;4993735;28;20395;-72
2023/06/27 01:42:10;;;;;;;88.37;2.37;;;22.50;26.00;;;;;;4993617;28;20396;-72
2023/06/27 01:44:37;;;;;;;88.17;2.20;;;22.50;26.70;;;;;;4993129;28;20493;-72
2023/06/27 01:47:04;;;;;;;88.47;2.30;;;22.70;26.60;;;;;;4993101;28;20419;-72
2023/06/27 01:49:30;;;;;;;88.20;1.93;;;22.70;26.30;;;;;;4993267;28;20892;-72
2023/06/27 01:51:56;;;;;;;88.67;2.30;;;22.60;25.40;;;;;;4993332;28;20942;-72
2023/06/27 01:54:22;;;;;;;88.57;2.30;;;22.60;25.00;;;;;;4992913;28;20415;-73
2023/06/27 01:56:48;;;;;;;89.77;2.23;;;22.60;24.80;;;;;;4993162;28;20496;-73
2023/06/27 01:59:13;;;;;;;88.50;2.30;;;22.60;25.20;;;;;;4993097;28;20180;-73
2023/06/27 02:01:39;;;;;;;88.80;2.27;;;22.60;25.20;;;;;;4992978;28;20184;-73
2023/06/27 02:04:04;;;;;;;89.20;2.57;;;22.60;25.10;;;;;;4993275;28;20187;-73
2023/06/27 02:06:30;;;;;;;88.67;2.30;;;22.60;25.20;;;;;;4991883;28;20196;-73
2023/06/27 02:08:55;;;;;;;88.50;2.17;;;22.50;25.30;;;;;;4993096;28;20544;-73
2023/06/27 02:11:21;;;;;;;88.97;2.60;;;22.60;25.20;;;;;;4993078;28;20271;-73
2023/06/27 02:13:47;;;;;;;88.60;2.30;;;22.60;25.20;;;;;;4993123;28;20228;-72
2023/06/27 02:16:12;;;;;;;88.50;2.10;;;22.80;25.60;;;;;;4992536;28;20256;-74
2023/06/27 02:18:38;;;;;;;88.50;2.10;;;22.70;26.00;;;;;;4993047;28;20444;-73
2023/06/27 02:21:04;;;;;;;89.77;2.67;;;23.00;25.50;;;;;;4992943;28;20267;-73
2023/06/27 02:23:30;;;;;;;88.30;2.00;;;22.80;25.30;;;;;;4992858;28;20185;-73
2023/06/27 02:25:55;;;;;;;88.67;2.20;;;22.80;25.40;;;;;;4992577;28;20204;-74
2023/06/27 02:28:21;;;;;;;88.50;2.00;;;22.90;26.20;;;;;;4992715;28;20538;-73
2023/06/27 02:30:47;;;;;;;88.97;2.40;;;22.90;25.70;;;;;;4992439;28;20417;-72
2023/06/27 02:33:12;;;;;;;89.00;2.47;;;22.90;26.20;;;;;;4991511;28;20185;-73
2023/06/27 02:35:38;;;;;;;89.27;2.57;;;22.90;26.00;;;;;;4992261;28;20278;-73
2023/06/27 02:38:03;;;;;;;88.77;2.20;;;22.90;25.20;;;;;;4992729;28;20178;-73
2023/06/27 02:40:29;;;;;;;88.90;2.30;;;22.90;25.80;;;;;;4991577;28;20181;-72
2023/06/27 02:42:55;;;;;;;88.60;2.20;;;22.80;26.20;;;;;;4992532;28;20267;-73
2023/06/27 02:45:20;;;;;;;89.07;2.50;;;22.90;26.30;;;;;;4992300;28;20202;-73
2023/06/27 02:47:46;;;;;;;88.70;2.10;;;22.80;26.30;;;;;;4992485;28;20204;-73
2023/06/27 02:50:11;;;;;;;88.77;2.37;;;22.90;26.90;;;;;;4992547;28;20175;-73
2023/06/27 02:52:37;;;;;;;89.27;2.50;;;22.80;25.90;;;;;;4992286;28;20616;-73
2023/06/27 02:55:02;;;;;;;88.57;2.10;;;22.80;27.10;;;;;;4992318;28;20208;-73
2023/06/27 02:57:29;;;;;;;89.03;2.40;;;22.80;25.30;;;;;;4992588;28;20235;-73
2023/06/27 02:59:55;;;;;;;88.90;2.30;;;22.90;26.70;;;;;;4992488;28;20195;-73
2023/06/27 03:02:21;;;;;;;89.03;2.40;;;22.80;26.90;;;;;;4991075;28;20455;-71
2023/06/27 03:04:47;;;;;;;90.40;2.70;;;22.80;26.30;;;;;;4991832;28;20194;-71
2023/06/27 03:07:13;;;;;;;89.07;2.50;;;22.70;25.90;;;;;;4992356;28;20207;-71
2023/06/27 03:09:39;;;;;;;89.17;2.30;;;22.60;25.90;;;;;;4992340;28;20546;-71
2023/06/27 03:12:05;;;;;;;88.57;1.90;;;22.70;26.60;;;;;;4991974;28;20452;-71
2023/06/27 03:14:31;;;;;;;88.90;2.10;;;22.70;26.80;;;;;;4992114;28;20270;-71
2023/06/27 03:16:56;;;;;;;89.47;2.50;;;22.80;27.20;;;;;;4992949;28;20458;-71
2023/06/27 03:19:22;;;;;;;88.67;2.00;;;22.70;25.70;;;;;;4996098;28;20230;-72
2023/06/27 03:21:47;;;;;;;89.10;2.40;;;22.50;26.80;;;;;;4996078;28;20263;-71
2023/06/27 03:24:13;;;;;;;88.77;2.00;;;22.60;26.90;;;;;;4995814;28;20176;-72
2023/06/27 03:26:39;;;;;;;88.70;2.07;;;22.70;26.70;;;;;;4995722;28;20197;-71
2023/06/27 03:29:04;;;;;;;90.23;2.30;;;22.70;26.30;;;;;;4995680;28;20256;-72
2023/06/27 03:31:30;;;;;;;88.77;2.00;;;22.70;26.50;;;;;;4995946;28;20177;-71
2023/06/27 03:33:57;;;;;;;89.47;2.20;;;22.70;27.00;;;;;;4995762;28;20220;-71
2023/06/27 03:36:24;;;;;;;89.07;2.23;;;22.70;26.60;;;;;;4999678;23;20232;-74
2023/06/27 03:38:50;;;;;;;88.90;2.10;;;22.70;26.60;;;;;;4979137;28;20517;-74
2023/06/27 03:41:16;;;;;;;90.10;2.23;;;22.70;26.40;;;;;;4988849;28;20418;-74
2023/06/27 03:43:42;;;;;;;89.50;2.23;;;22.80;25.50;;;;;;4976567;28;20785;-75
2023/06/27 03:46:12;;;;;;;90.93;2.60;;;22.80;26.20;;;;;;4975509;28;20488;-75
2023/06/27 03:48:37;;;;;;;89.00;2.23;;;22.80;26.40;;;;;;4976711;28;20249;-75
2023/06/27 03:51:03;;;;;;;90.67;2.57;;;22.70;26.40;;;;;;4975955;28;20425;-76
2023/06/27 03:53:29;;;;;;;89.57;2.50;;;22.70;25.80;;;;;;4976302;28;20204;-76
2023/06/27 03:55:54;;;;;;;89.73;2.53;;;22.70;25.90;;;;;;4974262;28;20189;-75
2023/06/27 03:58:20;;;;;;;90.20;2.50;;;22.70;25.30;;;;;;4975973;28;20180;-75
2023/06/27 04:00:45;;;;;;;89.10;2.20;;;22.70;26.50;;;;;;4975644;28;20688;-75
2023/06/27 04:03:11;;;;;;;94.33;3.67;;;22.70;25.70;;;;;;4971123;28;20264;-75
2023/06/27 04:05:37;;;;;;;88.93;2.30;;;22.70;25.30;;;;;;4952704;28;20580;-75
2023/06/27 04:08:02;;;;;;;89.50;2.60;;;22.60;25.60;;;;;;4955695;28;20205;-75
2023/06/27 04:10:28;;;;;;;89.00;2.23;;;22.70;26.50;;;;;;4956390;28;20190;-75
2023/06/27 04:12:54;;;;;;;88.77;1.97;;;22.80;24.70;;;;;;4956248;28;20165;-75
2023/06/27 04:15:19;;;;;;;92.13;2.40;;;23.10;24.40;;;;;;4955786;28;20187;-75
2023/06/27 04:17:45;;;;;;;89.20;2.30;;;23.10;25.80;;;;;;4956351;28;20783;-73
2023/06/27 04:20:12;;;;;;;89.07;2.30;;;22.90;26.60;;;;;;4956218;28;20182;-73
2023/06/27 04:22:37;;;;;;;89.13;2.40;;;22.90;27.10;;;;;;4960018;28;20247;-73
2023/06/27 04:25:04;;;;;;;92.67;2.53;;;22.90;26.20;;;;;;4975094;28;20444;-73
2023/06/27 04:27:30;;;;;;;88.77;2.10;;;22.90;27.00;;;;;;4975229;28;20434;-73
2023/06/27 04:29:57;;;;;;;89.33;2.53;;;22.80;26.10;;;;;;4974541;28;20907;-73
2023/06/27 04:32:22;;;;;;;88.87;2.03;;;22.80;26.60;;;;;;4975314;28;20251;-74
2023/06/27 04:34:48;;;;;;;89.10;2.30;;;22.90;26.80;;;;;;4974784;28;20950;-73
2023/06/27 04:37:18;;;;;;;89.60;2.67;;;22.90;26.00;;;;;;4974997;28;20167;-73
2023/06/27 04:39:43;;;;;;;89.37;2.20;;;23.00;25.70;;;;;;4975119;28;20178;-73
2023/06/27 04:42:09;;;;;;;89.03;2.13;;;23.10;24.80;;;;;;4957516;28;20427;-73
2023/06/27 04:44:35;;;;;;;90.10;2.90;;;23.30;23.50;;;;;;4954135;28;20185;-73
2023/06/27 04:47:01;;;;;;;89.47;2.50;;;23.40;23.90;;;;;;4955869;28;20561;-73
2023/06/27 04:49:26;;;;;;;88.97;2.20;;;23.30;24.70;;;;;;4955267;28;20290;-72
2023/06/27 04:51:52;;;;;;;88.80;1.93;;;23.20;25.40;;;;;;4955403;28;20242;-73
2023/06/27 04:54:17;;;;;;;89.40;2.60;;;23.20;25.10;;;;;;4955485;28;20767;-73
2023/06/27 04:56:43;;;;;;;88.90;2.20;;;23.20;24.10;;;;;;4954895;28;20238;-73
2023/06/27 04:59:09;;;;;;;88.77;2.07;;;23.20;25.60;;;;;;4955309;29;20644;-73
2023/06/27 05:01:35;;;;;;;89.40;2.37;;;23.10;25.30;;;;;;4954439;28;20186;-75
2023/06/27 05:04:04;;;;;;;89.27;2.40;;;22.40;25.00;;;;;;4955180;28;20175;-76
2023/06/27 05:06:33;;;;;;;89.10;2.40;;;21.90;26.30;;;;;;4954239;28;20255;-75
2023/06/27 05:09:01;;;;;;;90.57;2.70;;;21.70;27.20;;;;;;4954068;28;20822;-75
2023/06/27 05:11:27;;;;;;;89.10;2.40;;;21.70;26.20;;;;;;4955254;28;20481;-73
2023/06/27 05:13:53;;;;;;;92.60;2.50;;;21.80;27.00;;;;;;4955343;28;20497;-73
2023/06/27 05:16:19;;;;;;;89.30;2.30;;;21.90;25.90;;;;;;4954854;28;20425;-73
2023/06/27 05:18:45;;;;;;;88.87;2.30;;;21.40;27.00;;;;;;4955086;28;20415;-73
2023/06/27 05:21:10;;;;;;;89.00;2.37;;;21.50;27.00;;;;;;4955900;28;20969;-74
2023/06/27 05:23:36;;;;;;;89.37;2.53;;;21.30;27.20;;;;;;4955008;28;20198;-74
2023/06/27 05:26:02;;;;;;;90.80;2.97;;;21.20;27.70;;;;;;4954654;28;20203;-74
2023/06/27 05:28:29;;;;;;;89.10;2.50;;;21.30;27.60;;;;;;4954947;28;20208;-74
2023/06/27 05:30:55;;;;;;;88.80;2.20;;;21.30;27.90;;;;;;4954987;28;20220;-74
2023/06/27 05:33:21;;;;;;;89.83;2.70;;;21.20;28.10;;;;;;4954898;28;20467;-74
2023/06/27 05:35:46;;;;;;;88.70;2.03;;;20.80;28.90;;;;;;4954375;28;20513;-74
2023/06/27 05:38:12;;;;;;;89.20;2.37;;;20.60;29.50;;;;;;4954307;28;20206;-75
2023/06/27 05:40:37;;;;;;;90.10;2.73;;;21.20;28.80;;;;;;4953842;28;20239;-75
2023/06/27 05:43:03;;;;;;;88.47;2.10;;;21.70;28.40;;;;;;4954695;28;20177;-74
2023/06/27 05:45:29;;;;;;;88.50;1.90;;;21.10;28.60;;;;;;4954327;28;20717;-74
2023/06/27 05:47:54;;;;;;;88.70;2.23;;;20.90;29.80;;;;;;4954585;28;20589;-74
2023/06/27 05:50:20;;;;;;;90.00;2.40;;;21.10;28.80;;;;;;4954705;28;20184;-74
2023/06/27 05:52:45;;;;;;;88.60;2.10;;;20.90;28.90;;;;;;4955037;29;20536;-75
2023/06/27 05:55:11;;;;;;;88.90;2.30;;;21.20;28.50;;;;;;4954221;28;20202;-74
2023/06/27 05:57:36;;;;;;;89.20;2.43;;;21.50;28.80;;;;;;4954459;28;20221;-74
2023/06/27 06:00:03;;;;;;;89.13;2.50;;;21.30;28.60;;;;;;4954371;28;20210;-75
2023/06/27 06:02:29;;;;;;;88.77;2.13;;;21.40;28.50;;;;;;4954285;28;20729;-74
2023/06/27 06:04:54;;;;;;;88.70;2.10;;;21.30;29.00;;;;;;4954118;28;20469;-74
2023/06/27 06:07:20;;;;;;;89.40;2.40;;;21.70;27.50;;;;;;4954228;28;20536;-76
2023/06/27 06:09:46;;;;;;;88.77;2.10;;;21.40;28.30;;;;;;4954314;28;20209;-74
2023/06/27 06:12:11;;;;;;;89.20;2.27;;;21.40;28.70;;;;;;4954169;28;20418;-74
2023/06/27 06:14:37;;;;;;;89.00;2.33;;;21.20;28.60;;;;;;4954283;28;20167;-75
2023/06/27 06:17:02;;;;;;;88.90;2.20;;;21.30;28.80;;;;;;4954456;28;20637;-75
2023/06/27 06:19:28;;;;;;;89.07;2.67;;;21.20;28.90;;;;;;4954148;28;20182;-74
2023/06/27 06:21:53;;;;;;;89.00;2.40;;;21.00;29.00;;;;;;4953819;28;20272;-74
2023/06/27 06:24:19;;;;;;;89.20;2.30;;;20.80;30.00;;;;;;4954254;28;20297;-74
2023/06/27 06:26:53;;;;;;;88.67;2.20;;;20.90;28.80;;;;;;4954892;28;20208;-75
2023/06/27 06:29:19;;;;;;;88.80;2.30;;;20.90;29.10;;;;;;4953982;28;20210;-74
2023/06/27 06:31:45;;;;;;;88.87;2.27;;;21.40;28.80;;;;;;4954260;28;20773;-75
2023/06/27 06:34:11;;;;;;;90.70;2.33;;;21.40;28.00;;;;;;4953844;28;20566;-75
2023/06/27 06:36:37;;;;;;;88.83;2.30;;;21.10;27.50;;;;;;4953480;28;20482;-75
2023/06/27 06:39:02;;;;;;;89.10;2.40;;;21.20;26.90;;;;;;4952189;28;20430;-74
2023/06/27 06:41:28;;;;;;;88.60;2.10;;;21.20;26.80;;;;;;4953931;28;20541;-74
2023/06/27 06:43:54;;;;;;;88.67;2.03;;;21.40;26.40;;;;;;4953460;28;20179;-74
2023/06/27 06:46:19;;;;;;;88.77;2.30;;;21.30;27.00;;;;;;4953434;28;20569;-74
2023/06/27 06:48:45;;;;;;;88.83;2.40;;;21.30;26.90;;;;;;4953956;28;20199;-74
2023/06/27 06:51:10;;;;;;;88.37;2.30;;;21.70;27.20;;;;;;4953831;28;20254;-74
2023/06/27 06:53:36;;;;;;;88.57;2.27;;;21.70;26.60;;;;;;4963343;28;20180;-73
2023/06/27 06:56:02;;;;;;;89.03;2.33;;;21.50;27.50;;;;;;4963066;28;20213;-74
2023/06/27 06:58:27;;;;;;;89.27;2.50;;;21.50;27.00;;;;;;4960078;28;20178;-75
2023/06/27 07:00:53;;;;;;;88.47;2.20;;;21.60;26.40;;;;;;4960069;28;20214;-74
2023/06/27 07:03:18;;;;;;;88.50;2.10;;;21.30;26.90;;;;;;4960139;28;20175;-74
2023/06/27 07:05:44;;;;;;;88.40;2.10;;;21.10;28.20;;;;;;4957999;28;20214;-74
2023/06/27 07:08:10;;;;;;;88.47;2.17;;;21.20;27.90;;;;;;4959668;28;20224;-75
2023/06/27 07:10:36;;;;;;;88.10;1.90;;;21.50;27.10;;;;;;4959873;28;20259;-75
2023/06/27 07:13:02;;;;;;;88.30;2.13;;;22.00;27.10;;;;;;4960044;28;20259;-74
2023/06/27 07:15:29;;;;;;;88.70;2.30;;;21.70;26.40;;;;;;4959502;28;20855;-74
2023/06/27 07:17:55;;;;;;;90.00;2.77;;;22.00;26.60;;;;;;4959766;28;20671;-74
2023/06/27 07:20:22;;;;;;;88.20;2.10;;;22.60;24.20;;;;;;4959726;28;20793;-74
2023/06/27 07:22:48;;;;;;;88.77;2.60;;;21.90;26.00;;;;;;4960116;28;20946;-74
2023/06/27 07:25:14;;;;;;;88.47;2.30;;;22.70;25.90;;;;;;4959646;28;20794;-75
2023/06/27 07:27:40;;;;;;;88.50;2.30;;;23.40;25.50;;;;;;4959913;28;20416;-75
2023/06/27 07:30:07;;;;;;;88.77;2.50;;;23.00;23.80;;;;;;4959698;28;20176;-75
2023/06/27 07:32:32;;;;;;;88.97;2.50;;;23.20;24.20;;;;;;4959553;28;20421;-75
2023/06/27 07:34:58;;;;;;;88.10;2.10;;;23.60;24.60;;;;;;4959259;28;20452;-76
2023/06/27 07:37:23;;;;;;;88.20;2.27;;;23.80;25.10;;;;;;4959539;28;20174;-75
2023/06/27 07:39:49;;;;;;;88.47;2.40;;;23.90;23.00;;;;;;4959712;28;20630;-75
2023/06/27 07:42:17;;;;;;;88.00;2.00;;;24.00;23.90;;;;;;4959748;28;20185;-75
2023/06/27 07:44:43;;;;;;;88.10;2.23;;;24.40;22.60;;;;;;4959162;28;20644;-75
2023/06/27 07:47:08;;;;;;;89.23;2.30;;;24.30;22.10;;;;;;4959656;28;20421;-76
2023/06/27 07:49:34;;;;;;;87.70;1.90;;;24.40;22.40;;;;;;4959593;28;20465;-75
2023/06/27 07:52:00;;;;;;;88.87;2.50;;;24.20;22.70;;;;;;4959611;28;20657;-74
2023/06/27 07:54:27;;;;;;;90.10;2.40;;;24.10;23.30;;;;;;4959836;28;20657;-77
2023/06/27 07:56:56;;;;;;;88.53;2.13;;;23.90;23.60;;;;;;4959205;28;20195;-74
2023/06/27 07:59:22;;;;;;;89.70;2.97;;;23.40;23.30;;;;;;4959603;28;20430;-74
2023/06/27 08:01:47;;;;;;;88.20;2.50;;;23.00;23.90;;;;;;4959282;28;20906;-75
2023/06/27 08:04:15;;;;;;;87.63;2.20;;;22.60;24.50;;;;;;4956964;28;20242;-75
2023/06/27 08:06:41;;;;;;;89.10;2.30;;;22.80;24.70;;;;;;4956105;28;20265;-74
2023/06/27 08:09:07;;;;;;;87.50;2.00;;;22.50;24.50;;;;;;4956205;28;20896;-74
2023/06/27 08:11:32;;;;;;;87.73;2.27;;;22.30;25.40;;;;;;4956073;28;20457;-74
2023/06/27 08:13:58;;;;;;;87.70;2.13;;;22.20;25.70;;;;;;4956420;28;20176;-74
2023/06/27 08:16:23;;;;;;;87.77;2.13;;;22.20;24.90;;;;;;4955787;28;20193;-75
2023/06/27 08:18:49;;;;;;;88.23;2.53;;;22.00;25.20;;;;;;4956421;28;20560;-75
2023/06/27 08:21:14;;;;;;;87.77;2.27;;;22.70;25.00;;;;;;4956362;28;20268;-75
2023/06/27 08:23:40;;;;;;;87.90;2.47;;;23.30;23.50;;;;;;4956280;28;20178;-74
2023/06/27 08:26:05;;;;;;;90.30;2.77;;;22.60;24.30;;;;;;4955705;28;20197;-74
2023/06/27 08:28:32;;;;;;;87.57;2.20;;;22.40;24.50;;;;;;4956077;28;20283;-74
2023/06/27 08:30:57;;;;;;;87.67;2.50;;;22.70;24.40;;;;;;4956363;28;20167;-74
2023/06/27 08:33:25;;;;;;;87.57;2.17;;;22.20;24.50;;;;;;4955908;28;20907;-74
2023/06/27 08:35:50;;;;;;;87.47;2.20;;;22.20;25.20;;;;;;4955486;28;20353;-74
2023/06/27 08:38:17;;;;;;;87.20;2.20;;;22.40;24.40;;;;;;4955589;28;20894;-74
2023/06/27 08:40:44;;;;;;;87.67;2.23;;;23.20;24.00;;;;;;4955856;28;20262;-74
2023/06/27 08:43:10;;;;;;;87.27;2.40;;;23.30;22.60;;;;;;4955760;28;20530;-75
2023/06/27 08:45:38;;;;;;;88.07;2.40;;;22.70;22.80;;;;;;4955274;29;20436;-75
2023/06/27 08:48:06;;;;;;;87.27;2.53;;;22.80;22.90;;;;;;4954268;28;20458;-75
2023/06/27 08:50:37;;;;;;;86.73;2.10;;;22.90;22.80;;;;;;4955827;28;20417;-75
2023/06/27 08:53:06;;;;;;;87.77;2.53;;;23.80;22.70;;;;;;4955569;28;20477;-74
2023/06/27 08:55:48;;;;;;;87.47;2.53;;;24.20;22.40;;;;;;4955376;28;20940;-75
2023/06/27 08:58:16;;;;;;;86.90;2.10;;;24.70;20.60;;;;;;4955209;28;20423;-75
2023/06/27 09:00:46;;;;;;;87.37;2.30;;;24.20;20.20;;;;;;4955637;28;20418;-74
2023/06/27 09:03:12;;;;;;;87.57;2.33;;;23.10;21.90;;;;;;4955510;28;20433;-74
2023/06/27 09:05:38;;;;;;;87.50;2.43;;;23.30;23.10;;;;;;4955191;28;20436;-74
2023/06/27 09:08:04;;;;;;;86.70;2.10;;;24.00;21.20;;;;;;4954861;28;20541;-75
2023/06/27 09:10:30;;;;;;;86.87;2.37;;;24.30;20.70;;;;;;4955167;28;20414;-74
2023/06/27 09:12:57;;;;;;;86.57;2.10;;;24.50;22.40;;;;;;4955104;28;20435;-74
2023/06/27 09:15:23;;;;;;;87.80;2.90;;;24.10;21.40;;;;;;4954903;28;20513;-75
2023/06/27 09:17:49;;;;;;;86.83;2.37;;;24.60;21.10;;;;;;4955053;28;20502;-75
2023/06/27 09:20:17;;;;;;;86.57;2.20;;;25.10;19.60;;;;;;4955211;28;20198;-75
2023/06/27 09:22:43;;;;;;;86.50;2.20;;;25.50;20.20;;;;;;4954956;28;20418;-76
2023/06/27 09:25:16;;;;;;;86.27;2.20;;;25.70;19.80;;;;;;4954786;28;20453;-76
2023/06/27 09:27:43;;;;;;;86.30;2.60;;;25.30;18.90;;;;;;4954975;28;20446;-75
2023/06/27 09:30:11;;;;;;;86.90;2.40;;;24.70;19.10;;;;;;4955069;28;20409;-75
2023/06/27 09:32:57;;;;;;;87.70;3.00;;;25.20;19.70;;;;;;4954883;28;20399;-75
2023/06/27 09:37:48;;;;;;;86.47;2.40;;;26.30;17.30;;;;;;5010078;23;20494;-73
2023/06/27 09:40:21;;;;;;;86.97;2.37;;;25.50;18.00;;;;;;4976691;28;20261;-73
2023/06/27 09:42:52;;;;;;;86.17;2.20;;;24.80;19.00;;;;;;4973413;28;20493;-74
2023/06/27 09:45:18;;;;;;;86.13;2.30;;;24.90;19.80;;;;;;4973404;28;20409;-73
2023/06/27 09:47:46;;;;;;;85.97;2.30;;;25.70;21.70;;;;;;4973653;28;20855;-73
2023/06/27 09:50:12;;;;;;;86.40;2.40;;;26.10;18.40;;;;;;4973522;28;20437;-73
2023/06/27 09:52:37;;;;;;;85.70;2.00;;;26.40;19.40;;;;;;4973272;28;20461;-73
2023/06/27 09:55:03;;;;;;;85.60;1.90;;;26.20;18.70;;;;;;4973353;28;20202;-73
2023/06/27 09:57:31;;;;;;;86.27;2.20;;;26.60;17.80;;;;;;4973176;28;20285;-73
2023/06/27 09:59:58;;;;;;;86.10;2.30;;;25.60;18.40;;;;;;4973516;28;20417;-72
2023/06/27 10:02:29;;;;;;;85.80;2.30;;;24.70;19.40;;;;;;4973582;28;20738;-73
2023/06/27 10:04:55;;;;;;;86.10;2.30;;;24.30;20.00;;;;;;4972861;28;20893;-73
2023/06/27 10:07:21;;;;;;;86.20;2.20;;;24.90;20.70;;;;;;4972708;28;20440;-73
2023/06/27 10:09:47;;;;;;;85.77;2.20;;;25.70;18.80;;;;;;4973239;28;20206;-73
2023/06/27 10:12:14;;;;;;;85.80;2.27;;;25.00;19.20;;;;;;4973131;28;20209;-73
2023/06/27 10:14:41;;;;;;;85.50;1.90;;;25.30;20.40;;;;;;4973281;28;20440;-73
2023/06/27 10:17:07;;;;;;;86.00;2.50;;;26.00;19.80;;;;;;4972710;28;20794;-73
2023/06/27 10:19:35;;;;;;;85.70;2.30;;;26.50;19.70;;;;;;4972961;28;20410;-73
2023/06/27 10:22:01;;;;;;;86.77;2.50;;;26.90;17.20;;;;;;4973025;28;20469;-73
2023/06/27 10:24:29;;;;;;;85.60;2.17;;;27.10;17.40;;;;;;4972690;28;20414;-73
2023/06/27 10:26:56;;;;;;;88.87;2.87;;;27.30;17.10;;;;;;4972289;28;20434;-73
2023/06/27 10:29:25;;;;;;;85.60;2.03;;;27.40;18.20;;;;;;4972821;28;20472;-72
2023/06/27 10:31:52;;;;;;;86.00;2.30;;;27.60;17.20;;;;;;4972650;28;20410;-73
2023/06/27 10:34:18;;;;;;;86.03;2.53;;;26.80;16.80;;;;;;4972680;28;20409;-73
2023/06/27 10:36:50;;;;;;;85.70;2.17;;;26.90;18.60;;;;;;4972239;28;20445;-74
2023/06/27 10:39:31;;;;;;;85.60;2.40;;;27.00;17.50;;;;;;4972408;28;20437;-73
2023/06/27 10:42:04;;;;;;;85.97;2.40;;;25.80;18.00;;;;;;4971510;28;20424;-73
2023/06/27 10:44:31;;;;;;;85.07;2.23;;;24.60;19.10;;;;;;4972647;28;20828;-73
2023/06/27 10:47:15;;;;;;;85.57;2.43;;;24.60;20.00;;;;;;4972753;28;20434;-73
2023/06/27 10:49:41;;;;;;;85.77;2.57;;;25.50;19.60;;;;;;4971128;28;20548;-73
2023/06/27 10:52:10;;;;;;;85.33;2.23;;;25.40;17.90;;;;;;4973033;28;20401;-73
2023/06/27 10:54:41;;;;;;;85.47;2.47;;;25.00;18.50;;;;;;4972301;28;20972;-73
2023/06/27 10:57:06;;;;;;;85.50;2.47;;;24.50;19.60;;;;;;4972609;28;20429;-73
2023/06/27 10:59:34;;;;;;;88.10;2.70;;;25.30;19.90;;;;;;4972483;28;20440;-73
2023/06/27 11:02:06;;;;;;;85.33;2.20;;;26.20;18.80;;;;;;4972561;28;20261;-74
2023/06/27 11:04:42;;;;;;;87.77;2.70;;;26.20;16.50;;;;;;4972136;28;20410;-74
2023/06/27 11:07:10;;;;;;;85.00;2.10;;;25.40;17.90;;;;;;4972117;28;20473;-74
2023/06/27 11:09:36;;;;;;;84.93;2.20;;;24.90;18.90;;;;;;4972302;28;20551;-74
2023/06/27 11:12:15;;;;;;;86.17;2.90;;;24.50;19.30;;;;;;4971355;28;20410;-74
2023/06/27 11:14:43;;;;;;;85.70;2.60;;;24.30;19.90;;;;;;4972166;28;20412;-74
2023/06/27 11:17:09;;;;;;;90.90;2.43;;;24.40;20.00;;;;;;4972839;28;20426;-74
2023/06/27 11:19:36;;;;;;;86.57;2.40;;;25.50;18.90;;;;;;4970757;28;20432;-74
2023/06/27 11:22:02;;;;;;;84.77;2.03;;;25.70;17.90;;;;;;4972465;28;20410;-72
2023/06/27 11:24:29;;;;;;;85.00;2.17;;;25.80;19.80;;;;;;4972129;28;20500;-72
2023/06/27 11:26:56;;;;;;;85.40;2.20;;;26.40;18.60;;;;;;4972412;28;20194;-72
2023/06/27 11:29:25;;;;;;;84.80;2.20;;;26.10;18.10;;;;;;4971382;28;21042;-72
2023/06/27 11:31:53;;;;;;;84.90;2.20;;;25.30;18.80;;;;;;4972152;28;20445;-73
2023/06/27 11:34:19;;;;;;;84.60;2.10;;;25.30;19.50;;;;;;4969099;28;20422;-72
2023/06/27 11:36:45;;;;;;;84.57;2.20;;;25.30;18.80;;;;;;4971221;28;20557;-73
2023/06/27 11:39:11;;;;;;;84.67;2.20;;;25.00;19.70;;;;;;4972486;28;20266;-72
2023/06/27 11:41:44;;;;;;;85.43;2.33;;;25.20;19.30;;;;;;4975607;28;20418;-73
2023/06/27 11:44:14;;;;;;;85.07;2.37;;;25.60;18.80;;;;;;4975398;28;20439;-73
2023/06/27 11:46:50;;;;;;;84.20;2.20;;;25.60;19.90;;;;;;4975593;28;20804;-72
2023/06/27 11:49:20;;;;;;;84.43;2.23;;;25.90;19.90;;;;;;4975797;28;20453;-73
2023/06/27 11:51:45;;;;;;;84.77;2.27;;;26.90;18.30;;;;;;4975549;28;21016;-74
2023/06/27 11:54:15;;;;;;;85.33;2.40;;;25.90;18.30;;;;;;4975375;28;20413;-74
2023/06/27 11:56:40;;;;;;;84.57;2.20;;;25.50;18.40;;;;;;4975414;28;20684;-73
2023/06/27 11:59:06;;;;;;;84.30;2.23;;;25.60;19.30;;;;;;4975636;28;20413;-73
2023/06/27 12:01:38;;;;;;;84.53;2.13;;;25.60;18.90;;;;;;4975598;28;20611;-74
2023/06/27 12:04:15;;;;;;;87.20;2.53;;;26.10;17.90;;;;;;4975354;28;20258;-73
2023/06/27 12:06:46;;;;;;;84.90;2.50;;;27.70;16.10;;;;;;4975017;28;20920;-73
2023/06/27 12:09:24;;;;;;;83.80;1.90;;;28.00;15.20;;;;;;4975240;28;20484;-73
2023/06/27 12:11:54;;;;;;;84.03;2.07;;;27.50;17.20;;;;;;4975220;28;20386;-73
2023/06/27 12:14:24;;;;;;;84.73;2.03;;;28.30;16.20;;;;;;4975169;28;20406;-74
2023/06/27 12:16:50;;;;;;;83.90;1.97;;;29.40;16.70;;;;;;4975239;28;20417;-73
2023/06/27 12:19:19;;;;;;;83.93;1.90;;;29.20;14.10;;;;;;4975108;28;20769;-73
2023/06/27 12:21:44;;;;;;;83.43;1.97;;;29.70;12.90;;;;;;4975346;28;20194;-74
2023/06/27 12:24:10;;;;;;;83.20;2.00;;;28.80;13.80;;;;;;4975045;28;20414;-74
2023/06/27 12:26:36;;;;;;;83.20;2.33;;;27.90;14.70;;;;;;4974582;28;20190;-73
2023/06/27 12:29:03;;;;;;;82.50;1.70;;;27.50;15.20;;;;;;4974947;28;20217;-73
2023/06/27 12:31:29;;;;;;;82.77;2.00;;;27.60;15.80;;;;;;4975047;28;20258;-74
2023/06/27 12:33:55;;;;;;;82.73;2.03;;;29.00;14.30;;;;;;4974923;28;20406;-73
2023/06/27 12:36:23;;;;;;;82.40;1.80;;;28.40;14.60;;;;;;4974209;28;20452;-73